sensor_id;sensor_type;location;lat;lon;timestamp;P1;durP1;ratioP1;P2;durP2;ratioP2
67429;SDS011;54298;52.076;5.264;2024-01-16T00:00:05;7.0;;;2.4;;
67429;SDS011;54298;52.076;5.264;2024-01-16T00:01:42;5.0;;;1.7;;
67429;SDS011;54298;52.076;5.264;2024-01-16T00:04:55;8.71;;;2.21;;
67429;SDS011;54298;52.076;5.264;2024-01-16T00:06:31;7.7;;;1.9;;
67429;SDS011;54298;52.076;5.264;2024-01-16T00:08:07;5.0;;;2.1;;
67429;SDS011;54298;52.076;5.264;2024-01-16T00:11:19;5.4;;;1.9;;
67429;SDS011;54298;52.076;5.264;2024-01-16T00:12:55;8.1;;;2.31;;
67429;SDS011;54298;52.076;5.264;2024-01-16T00:14:34;7.6;;;2.4;;
67429;SDS011;54298;52.076;5.264;2024-01-16T00:17:47;11.2;;;2.7;;
67429;SDS011;54298;52.076;5.264;2024-01-16T00:19:23;5.8;;;1.6;;
67429;SDS011;54298;52.076;5.264;2024-01-16T00:21:00;9.9;;;2.5;;
67429;SDS011;54298;52.076;5.264;2024-01-16T00:22:36;8.1;;;2.1;;
67429;SDS011;54298;52.076;5.264;2024-01-16T00:25:49;7.7;;;2.0;;
67429;SDS011;54298;52.076;5.264;2024-01-16T00:27:25;6.9;;;2.21;;
67429;SDS011;54298;52.076;5.264;2024-01-16T00:29:01;9.21;;;2.31;;
67429;SDS011;54298;52.076;5.264;2024-01-16T00:32:18;6.2;;;1.8;;
67429;SDS011;54298;52.076;5.264;2024-01-16T00:33:54;9.21;;;1.9;;
67429;SDS011;54298;52.076;5.264;2024-01-16T00:35:30;5.6;;;1.9;;
67429;SDS011;54298;52.076;5.264;2024-01-16T00:37:07;6.7;;;2.31;;
67429;SDS011;54298;52.076;5.264;2024-01-16T00:40:19;5.3;;;2.1;;
67429;SDS011;54298;52.076;5.264;2024-01-16T00:41:55;4.5;;;1.9;;
67429;SDS011;54298;52.076;5.264;2024-01-16T00:43:31;8.81;;;2.21;;
67429;SDS011;54298;52.076;5.264;2024-01-16T00:46:43;6.6;;;2.0;;
67429;SDS011;54298;52.076;5.264;2024-01-16T00:48:20;4.8;;;1.7;;
67429;SDS011;54298;52.076;5.264;2024-01-16T00:49:56;5.8;;;1.8;;
67429;SDS011;54298;52.076;5.264;2024-01-16T00:53:08;3.9;;;1.5;;
67429;SDS011;54298;52.076;5.264;2024-01-16T00:54:44;11.8;;;2.1;;
67429;SDS011;54298;52.076;5.264;2024-01-16T00:56:20;5.9;;;1.9;;
67429;SDS011;54298;52.076;5.264;2024-01-16T00:59:33;4.5;;;2.0;;
67429;SDS011;54298;52.076;5.264;2024-01-16T01:01:10;6.6;;;1.9;;
67429;SDS011;54298;52.076;5.264;2024-01-16T01:02:46;6.2;;;2.4;;
67429;SDS011;54298;52.076;5.264;2024-01-16T01:04:22;5.11;;;2.0;;
67429;SDS011;54298;52.076;5.264;2024-01-16T01:07:35;5.3;;;1.9;;
67429;SDS011;54298;52.076;5.264;2024-01-16T01:09:11;4.2;;;1.6;;
67429;SDS011;54298;52.076;5.264;2024-01-16T01:10:48;6.7;;;1.8;;
67429;SDS011;54298;52.076;5.264;2024-01-16T01:14:00;6.1;;;1.7;;
67429;SDS011;54298;52.076;5.264;2024-01-16T01:15:36;5.4;;;1.9;;
67429;SDS011;54298;52.076;5.264;2024-01-16T01:17:15;5.6;;;1.5;;
67429;SDS011;54298;52.076;5.264;2024-01-16T01:20:27;8.9;;;1.7;;
67429;SDS011;54298;52.076;5.264;2024-01-16T01:22:04;10.5;;;2.0;;
67429;SDS011;54298;52.076;5.264;2024-01-16T01:23:40;4.61;;;1.5;;
67429;SDS011;54298;52.076;5.264;2024-01-16T01:25:16;3.1;;;1.4;;
67429;SDS011;54298;52.076;5.264;2024-01-16T01:28:28;9.5;;;2.21;;
67429;SDS011;54298;52.076;5.264;2024-01-16T01:30:05;6.4;;;2.21;;
67429;SDS011;54298;52.076;5.264;2024-01-16T01:31:44;8.2;;;1.9;;
67429;SDS011;54298;52.076;5.264;2024-01-16T01:34:57;4.0;;;1.6;;
67429;SDS011;54298;52.076;5.264;2024-01-16T01:36:33;3.2;;;1.7;;
67429;SDS011;54298;52.076;5.264;2024-01-16T01:38:09;4.91;;;1.6;;
67429;SDS011;54298;52.076;5.264;2024-01-16T01:41:21;6.3;;;1.9;;
67429;SDS011;54298;52.076;5.264;2024-01-16T01:42:58;5.8;;;2.21;;
67429;SDS011;54298;52.076;5.264;2024-01-16T01:44:52;12.8;;;2.1;;
67429;SDS011;54298;52.076;5.264;2024-01-16T01:46:28;6.9;;;1.9;;
67429;SDS011;54298;52.076;5.264;2024-01-16T01:49:42;3.6;;;2.0;;
67429;SDS011;54298;52.076;5.264;2024-01-16T01:51:18;4.2;;;2.0;;
67429;SDS011;54298;52.076;5.264;2024-01-16T01:52:55;9.6;;;2.31;;
67429;SDS011;54298;52.076;5.264;2024-01-16T01:54:31;5.2;;;1.8;;
67429;SDS011;54298;52.076;5.264;2024-01-16T01:57:52;3.7;;;1.8;;
67429;SDS011;54298;52.076;5.264;2024-01-16T01:59:29;5.11;;;1.8;;
67429;SDS011;54298;52.076;5.264;2024-01-16T02:01:06;5.8;;;2.21;;
67429;SDS011;54298;52.076;5.264;2024-01-16T02:04:19;3.9;;;1.6;;
67429;SDS011;54298;52.076;5.264;2024-01-16T02:05:56;5.4;;;1.9;;
67429;SDS011;54298;52.076;5.264;2024-01-16T02:07:32;6.4;;;1.5;;
67429;SDS011;54298;52.076;5.264;2024-01-16T02:09:15;2.5;;;1.3;;
67429;SDS011;54298;52.076;5.264;2024-01-16T02:12:27;5.5;;;1.3;;
67429;SDS011;54298;52.076;5.264;2024-01-16T02:14:03;3.5;;;1.0;;
67429;SDS011;54298;52.076;5.264;2024-01-16T02:15:40;3.3;;;1.2;;
67429;SDS011;54298;52.076;5.264;2024-01-16T02:18:52;2.5;;;1.0;;
67429;SDS011;54298;52.076;5.264;2024-01-16T02:20:28;2.31;;;0.9;;
67429;SDS011;54298;52.076;5.264;2024-01-16T02:22:06;1.9;;;1.11;;
67429;SDS011;54298;52.076;5.264;2024-01-16T02:23:50;4.0;;;1.2;;
67429;SDS011;54298;52.076;5.264;2024-01-16T02:27:03;5.0;;;1.5;;
67429;SDS011;54298;52.076;5.264;2024-01-16T02:28:40;2.31;;;1.11;;
67429;SDS011;54298;52.076;5.264;2024-01-16T02:30:16;1.7;;;1.0;;
67429;SDS011;54298;52.076;5.264;2024-01-16T02:33:28;1.6;;;1.11;;
67429;SDS011;54298;52.076;5.264;2024-01-16T02:35:05;3.0;;;1.2;;
67429;SDS011;54298;52.076;5.264;2024-01-16T02:36:42;3.1;;;1.3;;
67429;SDS011;54298;52.076;5.264;2024-01-16T02:39:54;1.5;;;0.9;;
67429;SDS011;54298;52.076;5.264;2024-01-16T02:41:30;2.0;;;1.11;;
67429;SDS011;54298;52.076;5.264;2024-01-16T02:43:06;1.4;;;0.9;;
67429;SDS011;54298;52.076;5.264;2024-01-16T02:46:18;2.21;;;1.3;;
67429;SDS011;54298;52.076;5.264;2024-01-16T02:47:55;3.2;;;1.11;;
67429;SDS011;54298;52.076;5.264;2024-01-16T02:49:31;4.61;;;1.11;;
67429;SDS011;54298;52.076;5.264;2024-01-16T02:51:07;1.5;;;0.9;;
67429;SDS011;54298;52.076;5.264;2024-01-16T02:54:19;3.1;;;1.2;;
67429;SDS011;54298;52.076;5.264;2024-01-16T02:55:55;2.7;;;1.3;;
67429;SDS011;54298;52.076;5.264;2024-01-16T02:57:31;4.2;;;1.3;;
67429;SDS011;54298;52.076;5.264;2024-01-16T03:00:45;1.5;;;1.0;;
67429;SDS011;54298;52.076;5.264;2024-01-16T03:02:21;3.2;;;1.0;;
67429;SDS011;54298;52.076;5.264;2024-01-16T03:03:57;3.4;;;1.11;;
67429;SDS011;54298;52.076;5.264;2024-01-16T03:07:14;2.0;;;1.2;;
67429;SDS011;54298;52.076;5.264;2024-01-16T03:08:54;1.3;;;0.7;;
67429;SDS011;54298;52.076;5.264;2024-01-16T03:10:30;4.61;;;1.4;;
67429;SDS011;54298;52.076;5.264;2024-01-16T03:12:06;5.2;;;1.2;;
67429;SDS011;54298;52.076;5.264;2024-01-16T03:15:18;6.2;;;1.3;;
67429;SDS011;54298;52.076;5.264;2024-01-16T03:16:54;3.3;;;1.2;;
67429;SDS011;54298;52.076;5.264;2024-01-16T03:18:30;2.0;;;1.0;;
67429;SDS011;54298;52.076;5.264;2024-01-16T03:21:44;4.3;;;1.2;;
67429;SDS011;54298;52.076;5.264;2024-01-16T03:23:20;3.2;;;1.2;;
67429;SDS011;54298;52.076;5.264;2024-01-16T03:24:56;2.31;;;0.9;;
67429;SDS011;54298;52.076;5.264;2024-01-16T03:28:08;2.8;;;0.9;;
67429;SDS011;54298;52.076;5.264;2024-01-16T03:29:45;2.9;;;1.2;;
67429;SDS011;54298;52.076;5.264;2024-01-16T03:31:21;3.1;;;1.2;;
67429;SDS011;54298;52.076;5.264;2024-01-16T03:32:57;2.1;;;1.0;;
67429;SDS011;54298;52.076;5.264;2024-01-16T03:36:09;1.9;;;0.9;;
67429;SDS011;54298;52.076;5.264;2024-01-16T03:37:45;2.5;;;0.8;;
67429;SDS011;54298;52.076;5.264;2024-01-16T03:39:21;4.61;;;1.3;;
67429;SDS011;54298;52.076;5.264;2024-01-16T03:42:34;3.4;;;0.8;;
67429;SDS011;54298;52.076;5.264;2024-01-16T03:44:10;2.5;;;0.9;;
67429;SDS011;54298;52.076;5.264;2024-01-16T03:45:46;3.2;;;1.0;;
67429;SDS011;54298;52.076;5.264;2024-01-16T03:48:58;3.0;;;0.9;;
67429;SDS011;54298;52.076;5.264;2024-01-16T03:50:35;3.6;;;1.2;;
67429;SDS011;54298;52.076;5.264;2024-01-16T03:52:11;1.7;;;0.9;;
67429;SDS011;54298;52.076;5.264;2024-01-16T03:53:47;3.5;;;1.11;;
67429;SDS011;54298;52.076;5.264;2024-01-16T03:56:59;2.4;;;0.7;;
67429;SDS011;54298;52.076;5.264;2024-01-16T03:58:35;2.7;;;1.0;;
67429;SDS011;54298;52.076;5.264;2024-01-16T04:00:12;2.5;;;1.3;;
67429;SDS011;54298;52.076;5.264;2024-01-16T04:03:28;2.6;;;1.11;;
67429;SDS011;54298;52.076;5.264;2024-01-16T04:05:04;3.1;;;1.11;;
67429;SDS011;54298;52.076;5.264;2024-01-16T04:06:40;2.31;;;1.11;;
67429;SDS011;54298;52.076;5.264;2024-01-16T04:09:53;3.7;;;1.2;;
67429;SDS011;54298;52.076;5.264;2024-01-16T04:11:29;3.7;;;1.2;;
67429;SDS011;54298;52.076;5.264;2024-01-16T04:13:05;3.8;;;1.3;;
67429;SDS011;54298;52.076;5.264;2024-01-16T04:14:41;6.8;;;1.4;;
67429;SDS011;54298;52.076;5.264;2024-01-16T04:17:53;3.8;;;1.2;;
67429;SDS011;54298;52.076;5.264;2024-01-16T04:19:29;3.7;;;1.2;;
67429;SDS011;54298;52.076;5.264;2024-01-16T04:21:06;2.8;;;1.3;;
67429;SDS011;54298;52.076;5.264;2024-01-16T04:24:18;3.7;;;1.2;;
67429;SDS011;54298;52.076;5.264;2024-01-16T04:25:54;6.0;;;1.3;;
67429;SDS011;54298;52.076;5.264;2024-01-16T04:27:30;2.21;;;1.11;;
67429;SDS011;54298;52.076;5.264;2024-01-16T04:30:42;2.5;;;1.4;;
67429;SDS011;54298;52.076;5.264;2024-01-16T04:32:19;3.8;;;1.6;;
67429;SDS011;54298;52.076;5.264;2024-01-16T04:33:55;2.21;;;1.0;;
67429;SDS011;54298;52.076;5.264;2024-01-16T04:37:07;4.41;;;1.5;;
67429;SDS011;54298;52.076;5.264;2024-01-16T04:38:43;5.8;;;1.4;;
67429;SDS011;54298;52.076;5.264;2024-01-16T04:40:19;8.71;;;1.6;;
67429;SDS011;54298;52.076;5.264;2024-01-16T04:41:55;3.3;;;1.2;;
67429;SDS011;54298;52.076;5.264;2024-01-16T04:45:08;2.1;;;1.11;;
67429;SDS011;54298;52.076;5.264;2024-01-16T04:46:45;4.8;;;1.5;;
67429;SDS011;54298;52.076;5.264;2024-01-16T04:48:21;3.1;;;1.11;;
67429;SDS011;54298;52.076;5.264;2024-01-16T04:51:33;3.4;;;1.3;;
67429;SDS011;54298;52.076;5.264;2024-01-16T04:53:09;6.5;;;1.8;;
67429;SDS011;54298;52.076;5.264;2024-01-16T04:54:45;2.5;;;1.3;;
67429;SDS011;54298;52.076;5.264;2024-01-16T04:57:58;3.2;;;1.6;;
67429;SDS011;54298;52.076;5.264;2024-01-16T04:59:34;14.5;;;6.1;;
67429;SDS011;54298;52.076;5.264;2024-01-16T05:01:10;10.1;;;4.8;;
67429;SDS011;54298;52.076;5.264;2024-01-16T05:02:48;6.9;;;2.9;;
67429;SDS011;54298;52.076;5.264;2024-01-16T05:06:01;2.8;;;1.6;;
67429;SDS011;54298;52.076;5.264;2024-01-16T05:07:38;2.9;;;1.4;;
67429;SDS011;54298;52.076;5.264;2024-01-16T05:09:14;3.2;;;1.3;;
67429;SDS011;54298;52.076;5.264;2024-01-16T05:12:29;3.8;;;1.6;;
67429;SDS011;54298;52.076;5.264;2024-01-16T05:14:05;4.0;;;1.4;;
67429;SDS011;54298;52.076;5.264;2024-01-16T05:15:41;1.9;;;1.2;;
67429;SDS011;54298;52.076;5.264;2024-01-16T05:18:54;3.5;;;1.4;;
67429;SDS011;54298;52.076;5.264;2024-01-16T05:20:30;2.9;;;1.4;;
67429;SDS011;54298;52.076;5.264;2024-01-16T05:22:06;3.8;;;1.11;;
67429;SDS011;54298;52.076;5.264;2024-01-16T05:26:54;4.5;;;1.2;;
67429;SDS011;54298;52.076;5.264;2024-01-16T05:28:30;4.2;;;1.2;;
67429;SDS011;54298;52.076;5.264;2024-01-16T05:30:07;6.2;;;1.4;;
67429;SDS011;54298;52.076;5.264;2024-01-16T05:33:19;2.7;;;1.4;;
67429;SDS011;54298;52.076;5.264;2024-01-16T05:34:55;2.7;;;1.4;;
67429;SDS011;54298;52.076;5.264;2024-01-16T05:36:31;2.7;;;1.4;;
67429;SDS011;54298;52.076;5.264;2024-01-16T05:39:43;4.1;;;1.5;;
67429;SDS011;54298;52.076;5.264;2024-01-16T05:41:20;5.4;;;1.5;;
67429;SDS011;54298;52.076;5.264;2024-01-16T05:42:56;3.7;;;1.4;;
67429;SDS011;54298;52.076;5.264;2024-01-16T05:46:08;3.4;;;1.7;;
67429;SDS011;54298;52.076;5.264;2024-01-16T05:47:45;2.9;;;1.6;;
67429;SDS011;54298;52.076;5.264;2024-01-16T05:49:21;6.0;;;1.8;;
67429;SDS011;54298;52.076;5.264;2024-01-16T05:50:57;1.9;;;1.2;;
67429;SDS011;54298;52.076;5.264;2024-01-16T05:54:11;5.11;;;1.7;;
67429;SDS011;54298;52.076;5.264;2024-01-16T05:55:47;5.6;;;1.8;;
67429;SDS011;54298;52.076;5.264;2024-01-16T05:57:23;6.4;;;1.5;;
67429;SDS011;54298;52.076;5.264;2024-01-16T06:00:35;5.3;;;1.5;;
67429;SDS011;54298;52.076;5.264;2024-01-16T06:02:12;2.31;;;1.4;;
67429;SDS011;54298;52.076;5.264;2024-01-16T06:03:48;5.0;;;2.5;;
67429;SDS011;54298;52.076;5.264;2024-01-16T06:07:00;4.5;;;2.0;;
67429;SDS011;54298;52.076;5.264;2024-01-16T06:08:36;3.3;;;1.9;;
67429;SDS011;54298;52.076;5.264;2024-01-16T06:10:12;3.6;;;1.8;;
67429;SDS011;54298;52.076;5.264;2024-01-16T06:11:48;3.7;;;1.5;;
67429;SDS011;54298;52.076;5.264;2024-01-16T06:15:01;6.9;;;2.21;;
67429;SDS011;54298;52.076;5.264;2024-01-16T06:16:37;6.4;;;2.1;;
67429;SDS011;54298;52.076;5.264;2024-01-16T06:18:13;5.0;;;1.7;;
67429;SDS011;54298;52.076;5.264;2024-01-16T06:21:25;6.5;;;2.21;;
67429;SDS011;54298;52.076;5.264;2024-01-16T06:23:02;3.4;;;1.7;;
67429;SDS011;54298;52.076;5.264;2024-01-16T06:24:38;4.2;;;2.0;;
67429;SDS011;54298;52.076;5.264;2024-01-16T06:27:50;4.0;;;2.1;;
67429;SDS011;54298;52.076;5.264;2024-01-16T06:29:26;5.0;;;2.0;;
67429;SDS011;54298;52.076;5.264;2024-01-16T06:31:02;4.61;;;2.4;;
67429;SDS011;54298;52.076;5.264;2024-01-16T06:34:15;4.8;;;2.21;;
67429;SDS011;54298;52.076;5.264;2024-01-16T06:35:51;4.61;;;2.31;;
67429;SDS011;54298;52.076;5.264;2024-01-16T06:37:27;5.0;;;2.6;;
67429;SDS011;54298;52.076;5.264;2024-01-16T06:39:03;9.1;;;3.2;;
67429;SDS011;54298;52.076;5.264;2024-01-16T06:42:15;4.8;;;2.7;;
67429;SDS011;54298;52.076;5.264;2024-01-16T06:43:51;4.8;;;3.0;;
67429;SDS011;54298;52.076;5.264;2024-01-16T06:45:27;9.4;;;2.9;;
67429;SDS011;54298;52.076;5.264;2024-01-16T06:48:40;4.8;;;2.7;;
67429;SDS011;54298;52.076;5.264;2024-01-16T06:50:16;5.5;;;3.0;;
67429;SDS011;54298;52.076;5.264;2024-01-16T06:51:52;5.2;;;2.8;;
67429;SDS011;54298;52.076;5.264;2024-01-16T06:55:04;5.4;;;3.0;;
67429;SDS011;54298;52.076;5.264;2024-01-16T06:56:40;5.9;;;3.6;;
67429;SDS011;54298;52.076;5.264;2024-01-16T06:58:17;6.5;;;3.3;;
67429;SDS011;54298;52.076;5.264;2024-01-16T07:01:29;6.5;;;5.3;;
67429;SDS011;54298;52.076;5.264;2024-01-16T07:03:05;7.0;;;3.0;;
67429;SDS011;54298;52.076;5.264;2024-01-16T07:04:41;7.7;;;3.7;;
67429;SDS011;54298;52.076;5.264;2024-01-16T07:06:17;6.3;;;2.7;;
67429;SDS011;54298;52.076;5.264;2024-01-16T07:09:29;6.9;;;3.3;;
67429;SDS011;54298;52.076;5.264;2024-01-16T07:11:06;12.8;;;3.3;;
67429;SDS011;54298;52.076;5.264;2024-01-16T07:12:42;8.71;;;3.6;;
67429;SDS011;54298;52.076;5.264;2024-01-16T07:15:55;8.71;;;4.3;;
67429;SDS011;54298;52.076;5.264;2024-01-16T07:17:31;7.0;;;3.6;;
67429;SDS011;54298;52.076;5.264;2024-01-16T07:19:07;8.5;;;4.41;;
67429;SDS011;54298;52.076;5.264;2024-01-16T07:22:20;6.1;;;4.1;;
67429;SDS011;54298;52.076;5.264;2024-01-16T07:23:56;8.1;;;4.0;;
67429;SDS011;54298;52.076;5.264;2024-01-16T07:25:33;7.2;;;3.9;;
67429;SDS011;54298;52.076;5.264;2024-01-16T07:27:09;8.9;;;4.3;;
67429;SDS011;54298;52.076;5.264;2024-01-16T07:30:21;8.71;;;4.2;;
67429;SDS011;54298;52.076;5.264;2024-01-16T07:31:57;6.4;;;4.1;;
67429;SDS011;54298;52.076;5.264;2024-01-16T07:33:34;7.5;;;4.1;;
67429;SDS011;54298;52.076;5.264;2024-01-16T07:36:46;8.71;;;4.1;;
67429;SDS011;54298;52.076;5.264;2024-01-16T07:38:22;10.0;;;3.9;;
67429;SDS011;54298;52.076;5.264;2024-01-16T07:39:58;8.4;;;4.0;;
67429;SDS011;54298;52.076;5.264;2024-01-16T07:43:11;7.2;;;3.8;;
67429;SDS011;54298;52.076;5.264;2024-01-16T07:44:47;7.9;;;4.0;;
67429;SDS011;54298;52.076;5.264;2024-01-16T07:46:23;6.3;;;3.8;;
67429;SDS011;54298;52.076;5.264;2024-01-16T07:49:35;9.31;;;4.0;;
67429;SDS011;54298;52.076;5.264;2024-01-16T07:51:11;12.6;;;3.6;;
67429;SDS011;54298;52.076;5.264;2024-01-16T07:52:48;8.5;;;4.0;;
67429;SDS011;54298;52.076;5.264;2024-01-16T07:54:24;9.6;;;4.2;;
67429;SDS011;54298;52.076;5.264;2024-01-16T07:57:36;7.7;;;3.9;;
67429;SDS011;54298;52.076;5.264;2024-01-16T07:59:12;12.6;;;5.4;;
67429;SDS011;54298;52.076;5.264;2024-01-16T08:00:48;9.31;;;3.6;;
67429;SDS011;54298;52.076;5.264;2024-01-16T08:04:07;8.1;;;3.6;;
67429;SDS011;54298;52.076;5.264;2024-01-16T08:05:43;8.71;;;3.6;;
67429;SDS011;54298;52.076;5.264;2024-01-16T08:07:19;8.71;;;3.5;;
67429;SDS011;54298;52.076;5.264;2024-01-16T08:10:31;13.5;;;4.2;;
67429;SDS011;54298;52.076;5.264;2024-01-16T08:12:08;5.6;;;3.6;;
67429;SDS011;54298;52.076;5.264;2024-01-16T08:13:44;9.0;;;4.0;;
67429;SDS011;54298;52.076;5.264;2024-01-16T08:15:20;9.6;;;4.2;;
67429;SDS011;54298;52.076;5.264;2024-01-16T08:18:32;7.9;;;3.7;;
67429;SDS011;54298;52.076;5.264;2024-01-16T08:20:10;7.9;;;3.8;;
67429;SDS011;54298;52.076;5.264;2024-01-16T08:21:46;11.1;;;3.7;;
67429;SDS011;54298;52.076;5.264;2024-01-16T08:24:59;12.2;;;3.8;;
67429;SDS011;54298;52.076;5.264;2024-01-16T08:26:35;6.2;;;3.4;;
67429;SDS011;54298;52.076;5.264;2024-01-16T08:28:11;7.6;;;3.9;;
67429;SDS011;54298;52.076;5.264;2024-01-16T08:31:22;7.9;;;4.2;;
67429;SDS011;54298;52.076;5.264;2024-01-16T08:32:58;5.5;;;3.1;;
67429;SDS011;54298;52.076;5.264;2024-01-16T08:34:34;10.8;;;3.5;;
67429;SDS011;54298;52.076;5.264;2024-01-16T08:36:11;7.0;;;3.3;;
67429;SDS011;54298;52.076;5.264;2024-01-16T08:39:23;7.0;;;3.1;;
67429;SDS011;54298;52.076;5.264;2024-01-16T08:40:59;5.4;;;3.0;;
67429;SDS011;54298;52.076;5.264;2024-01-16T08:42:35;5.7;;;3.4;;
67429;SDS011;54298;52.076;5.264;2024-01-16T08:45:47;6.7;;;3.3;;
67429;SDS011;54298;52.076;5.264;2024-01-16T08:47:24;7.0;;;2.7;;
67429;SDS011;54298;52.076;5.264;2024-01-16T08:49:00;8.81;;;3.0;;
67429;SDS011;54298;52.076;5.264;2024-01-16T08:52:11;5.0;;;2.5;;
67429;SDS011;54298;52.076;5.264;2024-01-16T08:53:47;9.5;;;2.8;;
67429;SDS011;54298;52.076;5.264;2024-01-16T08:55:23;7.8;;;3.1;;
67429;SDS011;54298;52.076;5.264;2024-01-16T08:58:37;10.4;;;2.31;;
67429;SDS011;54298;52.076;5.264;2024-01-16T09:00:14;6.3;;;3.0;;
67429;SDS011;54298;52.076;5.264;2024-01-16T09:01:50;6.8;;;2.8;;
67429;SDS011;54298;52.076;5.264;2024-01-16T09:03:26;5.0;;;2.8;;
67429;SDS011;54298;52.076;5.264;2024-01-16T09:06:40;5.9;;;2.6;;
67429;SDS011;54298;52.076;5.264;2024-01-16T09:08:15;6.4;;;2.5;;
67429;SDS011;54298;52.076;5.264;2024-01-16T09:09:52;8.0;;;2.8;;
67429;SDS011;54298;52.076;5.264;2024-01-16T09:13:04;6.3;;;3.2;;
67429;SDS011;54298;52.076;5.264;2024-01-16T09:14:40;4.3;;;2.7;;
67429;SDS011;54298;52.076;5.264;2024-01-16T09:16:16;6.3;;;2.5;;
67429;SDS011;54298;52.076;5.264;2024-01-16T09:19:29;5.2;;;2.9;;
67429;SDS011;54298;52.076;5.264;2024-01-16T09:21:05;10.3;;;2.6;;
67429;SDS011;54298;52.076;5.264;2024-01-16T09:22:41;5.9;;;2.9;;
67429;SDS011;54298;52.076;5.264;2024-01-16T09:24:17;6.2;;;3.0;;
67429;SDS011;54298;52.076;5.264;2024-01-16T09:27:30;7.1;;;2.8;;
67429;SDS011;54298;52.076;5.264;2024-01-16T09:29:06;7.6;;;3.3;;
67429;SDS011;54298;52.076;5.264;2024-01-16T09:30:43;9.6;;;3.1;;
67429;SDS011;54298;52.076;5.264;2024-01-16T09:33:55;4.91;;;2.6;;
67429;SDS011;54298;52.076;5.264;2024-01-16T09:35:32;5.7;;;2.9;;
67429;SDS011;54298;52.076;5.264;2024-01-16T09:37:07;7.2;;;2.6;;
67429;SDS011;54298;52.076;5.264;2024-01-16T09:40:20;6.7;;;3.3;;
67429;SDS011;54298;52.076;5.264;2024-01-16T09:41:56;5.0;;;2.5;;
67429;SDS011;54298;52.076;5.264;2024-01-16T09:43:35;9.31;;;2.9;;
67429;SDS011;54298;52.076;5.264;2024-01-16T09:45:12;7.5;;;3.0;;
67429;SDS011;54298;52.076;5.264;2024-01-16T09:48:31;6.4;;;2.7;;
67429;SDS011;54298;52.076;5.264;2024-01-16T09:50:07;7.0;;;3.3;;
67429;SDS011;54298;52.076;5.264;2024-01-16T09:51:43;9.71;;;2.8;;
67429;SDS011;54298;52.076;5.264;2024-01-16T09:54:55;7.9;;;3.2;;
67429;SDS011;54298;52.076;5.264;2024-01-16T09:56:31;8.6;;;3.9;;
67429;SDS011;54298;52.076;5.264;2024-01-16T09:58:09;9.1;;;4.5;;
67429;SDS011;54298;52.076;5.264;2024-01-16T10:01:24;13.8;;;3.3;;
67429;SDS011;54298;52.076;5.264;2024-01-16T10:03:03;7.6;;;3.6;;
67429;SDS011;54298;52.076;5.264;2024-01-16T10:04:41;9.71;;;2.9;;
67429;SDS011;54298;52.076;5.264;2024-01-16T10:06:17;8.0;;;2.7;;
67429;SDS011;54298;52.076;5.264;2024-01-16T10:09:34;7.8;;;2.8;;
67429;SDS011;54298;52.076;5.264;2024-01-16T10:11:10;8.1;;;3.0;;
67429;SDS011;54298;52.076;5.264;2024-01-16T10:12:46;7.3;;;2.9;;
67429;SDS011;54298;52.076;5.264;2024-01-16T10:16:01;10.9;;;4.2;;
67429;SDS011;54298;52.076;5.264;2024-01-16T10:17:38;5.4;;;2.8;;
67429;SDS011;54298;52.076;5.264;2024-01-16T10:19:15;8.81;;;3.0;;
67429;SDS011;54298;52.076;5.264;2024-01-16T10:20:52;6.6;;;2.7;;
67429;SDS011;54298;52.076;5.264;2024-01-16T10:24:10;7.4;;;2.7;;
67429;SDS011;54298;52.076;5.264;2024-01-16T10:25:50;4.91;;;2.7;;
67429;SDS011;54298;52.076;5.264;2024-01-16T10:27:40;7.2;;;2.9;;
67429;SDS011;54298;52.076;5.264;2024-01-16T10:29:16;6.9;;;2.7;;
67429;SDS011;54298;52.076;5.264;2024-01-16T10:32:37;6.6;;;2.7;;
67429;SDS011;54298;52.076;5.264;2024-01-16T10:34:18;5.11;;;2.8;;
67429;SDS011;54298;52.076;5.264;2024-01-16T10:36:07;4.0;;;2.4;;
67429;SDS011;54298;52.076;5.264;2024-01-16T10:37:45;10.3;;;2.9;;
67429;SDS011;54298;52.076;5.264;2024-01-16T10:41:04;10.0;;;3.0;;
67429;SDS011;54298;52.076;5.264;2024-01-16T10:42:42;5.7;;;2.8;;
67429;SDS011;54298;52.076;5.264;2024-01-16T10:44:18;5.0;;;2.5;;
67429;SDS011;54298;52.076;5.264;2024-01-16T10:45:54;10.0;;;3.2;;
67429;SDS011;54298;52.076;5.264;2024-01-16T10:49:35;4.41;;;2.8;;
67429;SDS011;54298;52.076;5.264;2024-01-16T10:51:13;6.4;;;2.4;;
67429;SDS011;54298;52.076;5.264;2024-01-16T10:52:51;8.9;;;2.31;;
67429;SDS011;54298;52.076;5.264;2024-01-16T10:54:30;5.6;;;2.6;;
67429;SDS011;54298;52.076;5.264;2024-01-16T10:57:49;5.6;;;2.8;;
67429;SDS011;54298;52.076;5.264;2024-01-16T10:59:31;3.6;;;2.1;;
67429;SDS011;54298;52.076;5.264;2024-01-16T11:01:14;6.7;;;2.31;;
67429;SDS011;54298;52.076;5.264;2024-01-16T11:02:54;4.5;;;2.4;;
67429;SDS011;54298;52.076;5.264;2024-01-16T11:06:14;7.1;;;2.21;;
67429;SDS011;54298;52.076;5.264;2024-01-16T11:07:53;6.4;;;2.1;;
67429;SDS011;54298;52.076;5.264;2024-01-16T11:09:30;4.61;;;2.31;;
67429;SDS011;54298;52.076;5.264;2024-01-16T11:11:08;6.9;;;2.9;;
67429;SDS011;54298;52.076;5.264;2024-01-16T11:14:22;4.3;;;2.0;;
67429;SDS011;54298;52.076;5.264;2024-01-16T11:16:00;6.6;;;2.21;;
67429;SDS011;54298;52.076;5.264;2024-01-16T11:17:38;5.4;;;2.21;;
67429;SDS011;54298;52.076;5.264;2024-01-16T11:20:54;6.1;;;2.8;;
67429;SDS011;54298;52.076;5.264;2024-01-16T11:22:31;4.8;;;2.0;;
67429;SDS011;54298;52.076;5.264;2024-01-16T11:24:09;6.6;;;2.0;;
67429;SDS011;54298;52.076;5.264;2024-01-16T11:25:45;4.3;;;2.31;;
67429;SDS011;54298;52.076;5.264;2024-01-16T11:28:58;6.4;;;2.31;;
67429;SDS011;54298;52.076;5.264;2024-01-16T11:30:35;6.0;;;2.6;;
67429;SDS011;54298;52.076;5.264;2024-01-16T11:32:11;8.31;;;2.5;;
67429;SDS011;54298;52.076;5.264;2024-01-16T11:34:09;4.7;;;2.6;;
67429;SDS011;54298;52.076;5.264;2024-01-16T11:37:25;7.4;;;2.5;;
67429;SDS011;54298;52.076;5.264;2024-01-16T11:39:03;10.0;;;2.5;;
67429;SDS011;54298;52.076;5.264;2024-01-16T11:40:41;7.3;;;2.7;;
67429;SDS011;54298;52.076;5.264;2024-01-16T11:44:01;6.0;;;2.21;;
67429;SDS011;54298;52.076;5.264;2024-01-16T11:45:57;4.0;;;2.31;;
67429;SDS011;54298;52.076;5.264;2024-01-16T11:47:34;8.5;;;3.3;;
67429;SDS011;54298;52.076;5.264;2024-01-16T11:49:10;4.2;;;2.21;;
67429;SDS011;54298;52.076;5.264;2024-01-16T11:50:46;4.7;;;2.5;;
67429;SDS011;54298;52.076;5.264;2024-01-16T11:54:15;5.5;;;2.31;;
67429;SDS011;54298;52.076;5.264;2024-01-16T11:55:53;7.0;;;2.4;;
67429;SDS011;54298;52.076;5.264;2024-01-16T11:57:52;5.4;;;2.21;;
67429;SDS011;54298;52.076;5.264;2024-01-16T11:59:58;3.8;;;1.9;;
67429;SDS011;54298;52.076;5.264;2024-01-16T12:01:36;7.1;;;2.7;;
67429;SDS011;54298;52.076;5.264;2024-01-16T12:03:14;3.9;;;2.21;;
67429;SDS011;54298;52.076;5.264;2024-01-16T12:06:29;7.3;;;2.7;;
67429;SDS011;54298;52.076;5.264;2024-01-16T12:08:05;10.5;;;2.8;;
67429;SDS011;54298;52.076;5.264;2024-01-16T12:09:42;5.0;;;2.21;;
67429;SDS011;54298;52.076;5.264;2024-01-16T12:12:57;4.5;;;2.31;;
67429;SDS011;54298;52.076;5.264;2024-01-16T12:14:34;7.0;;;2.5;;
67429;SDS011;54298;52.076;5.264;2024-01-16T12:16:10;11.8;;;2.5;;
67429;SDS011;54298;52.076;5.264;2024-01-16T12:19:31;5.8;;;2.21;;
67429;SDS011;54298;52.076;5.264;2024-01-16T12:21:08;6.0;;;2.4;;
67429;SDS011;54298;52.076;5.264;2024-01-16T12:22:51;3.2;;;2.1;;
67429;SDS011;54298;52.076;5.264;2024-01-16T12:24:31;5.9;;;3.3;;
67429;SDS011;54298;52.076;5.264;2024-01-16T12:27:43;5.8;;;2.6;;
67429;SDS011;54298;52.076;5.264;2024-01-16T12:29:19;6.3;;;2.5;;
67429;SDS011;54298;52.076;5.264;2024-01-16T12:30:55;6.7;;;2.9;;
67429;SDS011;54298;52.076;5.264;2024-01-16T12:32:32;6.4;;;2.4;;
67429;SDS011;54298;52.076;5.264;2024-01-16T12:35:45;11.1;;;2.7;;
67429;SDS011;54298;52.076;5.264;2024-01-16T12:37:21;4.1;;;2.31;;
67429;SDS011;54298;52.076;5.264;2024-01-16T12:38:57;7.9;;;2.7;;
67429;SDS011;54298;52.076;5.264;2024-01-16T12:42:11;8.4;;;2.31;;
67429;SDS011;54298;52.076;5.264;2024-01-16T12:43:48;5.9;;;2.5;;
67429;SDS011;54298;52.076;5.264;2024-01-16T12:45:26;5.3;;;2.6;;
67429;SDS011;54298;52.076;5.264;2024-01-16T12:48:41;6.6;;;3.0;;
67429;SDS011;54298;52.076;5.264;2024-01-16T12:50:19;6.6;;;2.31;;
67429;SDS011;54298;52.076;5.264;2024-01-16T12:52:32;7.5;;;2.5;;
67429;SDS011;54298;52.076;5.264;2024-01-16T12:54:10;6.9;;;3.0;;
67429;SDS011;54298;52.076;5.264;2024-01-16T12:55:47;4.2;;;2.6;;